القاهرة, مصر

08:58 AM EET on أعس×س 28, 2015 (GMT +0200)
Cairo International | | Change Station
CLOSE
Current Station
Airport
Location: Cairo,
Elevation: 243 ft
Nearby Weather Stations

Elev 243 ft 30.11 °N, 31.41 °E | Updated 28 minutes ago

Mostly Cloudy
غائم كلياً
82 °F
Feels Like 87 °F
N
5
ريح متغير ريح from شمال شرقی

هذا اليوم
High -- | Low -- °F
--% Chance of Precip.
Yesterday
High -- | Low -- °F
Precip. -- في
5:28 AM 6:22 PM
الأحدب الأول, 97% visible
الضغط 29.92 في
وضوح الرؤية 6.2 أميال
سحابات غائم كلياً 2500 ft
مؤشر الحرارة 87 °F
نقطة الندى 72 °F
الرطوبة 70%
Rainfall 0.00 في
عمق الثلج Not available.
الأشعة فوق البنفسجية 4 out of 12
Pollen Not available.
جودة الهواء Not available.
Flu Activity Not available.
METAR HECA 280630Z 04004KT 9999 BKN025 28/22 Q1013 NOSIG
الضغط 29.92 في
وضوح الرؤية 6.2 أميال
سحابات غائم كلياً 2500 ft
مؤشر الحرارة 87 °F
نقطة الندى 72 °F
الرطوبة 70%
Rainfall 0.00 في
عمق الثلج Not available.
الأشعة فوق البنفسجية 4 out of 12
Pollen Not available.
جودة الهواء Not available.
Flu Activity Not available.
METAR HECA 280630Z 04004KT 9999 BKN025 28/22 Q1013 NOSIG

10-Day Weather Forecast

×

Almanac

علم الفلك

Aug. 28, 2015 Rise Set
Actual Time
Civil Twilight
Nautical Twilight
Astronomical Twilight
قمر
Length Of Visible Light
طول الیوم
Tomorrow will be .
, % of the Moon is Illuminated

Today's Extremes

Country Highs Country Lows

Community

WunderPhotos

Upload Photos

1,850,341 photos uploaded!

WunderBlogs® & News

Nearby

جودة الهواء

  جودة الهواء AQ Index Pollutant
Not available.

عمق الثلج

Station Depth Elevation

Earthquake Activity

City Distance Mag. Time & Date
Minimum magnitude displayed is 2.5.

Coastal Water Temperatures

مكان درجات الحرارة

Stations

Nearby Weather Stations

Station Location الحرارة رياح باردة نقطة الندى الرطوبة ريح Precip. Elev تحديث Type